John Paul II International Airport Krakow-Balice Airport Krakow PL
ICAO: EPKK
IATA: KRK
Category: Large
Scheduled Services: Yes

Elevation: 791 ft
TransAlt. 6500 ft.

Airport Communications:
KRAKOW APP:121.075
ATIS:126.125
KRAKOW DIRECTOR:123.8
KRAKOW DELIVERY:118.1
KRAKOW TWR:123.25

EPKK Zoom In..

Runways:

(A) RW 07 length 8366 ft width 197 ft
---- / hdg 74

(B) RW 25 length 8366 ft width 197 ft
ILS 110.30 / hdg 254

Location; EPKK
Day. 05 / Time. 15.30 Zulu
* QNH: 1013
* Temperature: 28° c. 82.4°f.
* Wind from: 260° Speed 12 kn.
Dewpoint: 14° c.
Visibility: 10 km or more,
No clouds below 1,500 m.
No cumulonimbus, and no significant weather
fenomena in the aerodrome or its vicinity.

EPKK 051530Z 26012KT CAVOK 28/14 Q1013

Going to: --> -->


Wind From 260°
Speed 12 kn.

 
 
jpsmedia worldairports.se 2020   terms of use